Hoy, Mississippi
Current Conditions -  °F | °C
As of 8:35 AM on Sunday 23 Nov 2014 (Local Time) from KPIB Reporting Station
Broken Clouds Broken Clouds  
Wind Chill: 61°   Ceiling: 300
Heat Index: 61°   Visibility: 2.5mi
Dew Point: 57°   Wind: 0mph
Humidity: 88%   Direction: NA
Pressure: 29.71"   Gusts: NA
Location:  31.6875°N, 89.1116°W
Report Text: KPIB 231435Z AUTO 00000KT 2 1/2SM BKN003 16/14 A2971 RMK AO1 P0013
Loading
Personal Weather Stations






























Interactive Weather Map New forecast layout! Learn more

10-Day Weather Forecast

Advertisements
Track Severe Weather on mobile